Time;durP1;ratioP1;P1;durP2;ratioP2;P2;SDS_P1;SDS_P2;PMS_P1;PMS_P2;Temp;Humidity;BMP_temperature;BMP_pressure;BME280_temperature;BME280_humidity;BME280_pressure;Samples;Min_cycle;Max_cycle;Signal;HPM_P1;HPM_P2
2023/12/19 00:00:53;;;;;;;;;;;;;;;3.22;75.01;101217.47;1088121;54;1074;-78
2023/12/19 00:01:56;;;;;;;;;;;;;;;3.25;75.08;101216.50;1088067;47;955;-78
2023/12/19 00:02:57;;;;;;;;;;;;;;;3.20;75.22;101218.50;1088117;54;939;-79
2023/12/19 00:04:01;;;;;;;;;;;;;;;3.15;75.02;101221.34;1088160;54;1030;-78
2023/12/19 00:05:02;;;;;;;;;;;;;;;3.20;74.76;101214.06;1088050;54;1038;-78
2023/12/19 00:06:07;;;;;;;;;;;;;;;3.20;74.88;101203.50;1087888;46;1070;-77
2023/12/19 00:07:08;;;;;;;;;;;;;;;3.23;74.63;101208.63;1087955;47;1033;-78
2023/12/19 00:08:11;;;;;;;;;;;;;;;3.27;74.93;101189.09;1087871;47;1400;-80
2023/12/19 00:09:12;;;;;;;;;;;;;;;3.30;74.56;101181.94;1088229;54;1059;-77
2023/12/19 00:10:13;;;;;;;;;;;;;;;3.35;74.60;101179.94;1088372;54;1109;-78
2023/12/19 00:11:16;;;;;;;;;;;;;;;3.37;74.33;101171.00;1088340;54;995;-77
2023/12/19 00:12:17;;;;;;;;;;;;;;;3.39;74.43;101170.94;1088327;54;951;-77
2023/12/19 00:13:20;;;;;;;;;;;;;;;3.41;74.26;101158.50;1088023;47;951;-79
2023/12/19 00:14:21;;;;;;;;;;;;;;;3.42;74.05;101149.63;1087892;47;1084;-79
2023/12/19 00:15:25;;;;;;;;;;;;;;;3.40;74.07;101141.78;1088053;54;1018;-79
2023/12/19 00:16:28;;;;;;;;;;;;;;;3.39;74.46;101144.50;1087946;47;970;-79
2023/12/19 00:17:32;;;;;;;;;;;;;;;3.35;74.25;101148.22;1088020;54;1896;-78
2023/12/19 00:18:32;;;;;;;;;;;;;;;3.35;74.29;101150.84;1088166;54;992;-78
2023/12/19 00:19:36;;;;;;;;;;;;;;;3.37;74.48;101146.38;1087910;47;1014;-78
2023/12/19 00:20:37;;;;;;;;;;;;;;;3.37;74.03;101149.00;1087822;54;1475;-77
2023/12/19 00:21:37;;;;;;;;;;;;;;;3.43;74.10;101151.34;1088037;54;992;-79
2023/12/19 00:22:40;;;;;;;;;;;;;;;3.42;73.89;101149.63;1088033;54;1008;-78
2023/12/19 00:23:41;;;;;;;;;;;;;;;3.47;73.86;101142.38;1088119;54;914;-78
2023/12/19 00:24:45;;;;;;;;;;;;;;;3.45;73.97;101144.22;1087988;47;981;-78
2023/12/19 00:25:46;;;;;;;;;;;;;;;3.50;73.87;101147.50;1088108;54;955;-79
2023/12/19 00:26:50;;;;;;;;;;;;;;;3.48;73.60;101152.00;1088044;47;851;-78
2023/12/19 00:27:50;;;;;;;;;;;;;;;3.41;73.74;101150.56;1088080;47;1393;-79
2023/12/19 00:28:53;;;;;;;;;;;;;;;3.38;73.95;101146.28;1087934;47;945;-78
2023/12/19 00:29:54;;;;;;;;;;;;;;;3.32;73.91;101136.00;1087917;47;1083;-79
2023/12/19 00:30:58;;;;;;;;;;;;;;;3.33;73.99;101144.78;1088157;47;955;-78
2023/12/19 00:32:01;;;;;;;;;;;;;;;3.37;73.96;101149.00;1088175;54;960;-78
2023/12/19 00:33:05;;;;;;;;;;;;;;;3.32;73.83;101143.06;1087990;47;919;-78
2023/12/19 00:34:06;;;;;;;;;;;;;;;3.24;74.31;101156.66;1087918;54;975;-79
2023/12/19 00:35:11;;;;;;;;;;;;;;;3.19;74.38;101155.97;1087982;47;871;-78
2023/12/19 00:36:17;;;;;;;;;;;;;;;3.16;74.59;101164.91;1088097;54;914;-78
2023/12/19 00:37:20;;;;;;;;;;;;;;;3.14;74.65;101161.47;1088048;47;943;-78
2023/12/19 00:38:21;;;;;;;;;;;;;;;3.17;74.63;101164.00;1087998;54;1852;-78
2023/12/19 00:39:24;;;;;;;;;;;;;;;3.13;74.70;101162.41;1087895;47;989;-78
2023/12/19 00:40:24;;;;;;;;;;;;;;;3.20;74.59;101163.88;1087885;54;975;-79
2023/12/19 00:41:25;;;;;;;;;;;;;;;3.21;74.19;101165.56;1087929;54;937;-78
2023/12/19 00:42:28;;;;;;;;;;;;;;;3.23;74.29;101162.84;1087888;54;876;-78
2023/12/19 00:43:29;;;;;;;;;;;;;;;3.27;74.52;101164.41;1087748;47;1197;-78
2023/12/19 00:44:36;;;;;;;;;;;;;;;3.20;74.64;101163.88;1087429;47;1179;-78
2023/12/19 00:45:37;;;;;;;;;;;;;;;3.15;74.60;101159.72;1087914;54;1008;-78
2023/12/19 00:46:43;;;;;;;;;;;;;;;3.15;74.66;101157.06;1088005;47;958;-77
2023/12/19 00:47:47;;;;;;;;;;;;;;;3.15;74.87;101170.28;1088026;47;1324;-78
2023/12/19 00:48:50;;;;;;;;;;;;;;;3.17;74.65;101165.75;1088147;54;1122;-77
2023/12/19 00:49:51;;;;;;;;;;;;;;;3.18;74.82;101168.34;1088084;47;906;-78
2023/12/19 00:50:55;;;;;;;;;;;;;;;3.12;74.74;101179.19;1088130;54;922;-79
2023/12/19 00:51:56;;;;;;;;;;;;;;;2.97;75.32;101171.03;1088144;47;909;-78
2023/12/19 00:52:59;;;;;;;;;;;;;;;3.00;75.18;101169.19;1088337;47;1048;-78
2023/12/19 00:54:00;;;;;;;;;;;;;;;2.90;75.41;101168.72;1088476;47;999;-78
2023/12/19 00:55:01;;;;;;;;;;;;;;;2.84;75.47;101161.06;1088482;54;992;-78
2023/12/19 00:56:07;;;;;;;;;;;;;;;2.85;75.68;101168.91;1088324;47;1071;-78
2023/12/19 00:57:08;;;;;;;;;;;;;;;2.88;75.76;101174.06;1088324;54;1161;-78
2023/12/19 00:58:11;;;;;;;;;;;;;;;2.90;75.68;101174.00;1088287;54;1889;-77
2023/12/19 00:59:12;;;;;;;;;;;;;;;2.85;75.79;101174.19;1088385;47;1142;-78
2023/12/19 01:00:15;;;;;;;;;;;;;;;2.90;75.98;101176.66;1088417;47;997;-78
2023/12/19 01:01:21;;;;;;;;;;;;;;;2.93;75.78;101173.88;1088221;54;955;-77
2023/12/19 01:02:24;;;;;;;;;;;;;;;2.96;75.61;101174.59;1088153;54;1102;-78
2023/12/19 01:03:27;;;;;;;;;;;;;;;3.04;75.43;101179.53;1088238;54;1089;-78
2023/12/19 01:04:32;;;;;;;;;;;;;;;3.07;75.35;101181.19;1088045;47;1070;-77
2023/12/19 01:05:33;;;;;;;;;;;;;;;3.02;75.41;101184.03;1088087;47;1058;-77
2023/12/19 01:06:37;;;;;;;;;;;;;;;2.96;75.48;101177.22;1088065;47;1378;-78
2023/12/19 01:07:38;;;;;;;;;;;;;;;2.94;75.65;101178.25;1088166;54;1382;-78
2023/12/19 01:08:44;;;;;;;;;;;;;;;2.88;75.88;101179.38;1088367;54;973;-79
2023/12/19 01:09:45;;;;;;;;;;;;;;;2.81;75.89;101177.91;1088439;54;968;-77
2023/12/19 01:10:48;;;;;;;;;;;;;;;2.73;76.02;101169.47;1088378;47;934;-78
2023/12/19 01:11:49;;;;;;;;;;;;;;;2.79;76.02;101166.56;1088391;47;1354;-78
2023/12/19 01:12:52;;;;;;;;;;;;;;;2.84;76.09;101169.00;1088425;54;943;-78
2023/12/19 01:13:53;;;;;;;;;;;;;;;2.93;75.78;101161.50;1088486;46;1074;-78
2023/12/19 01:14:54;;;;;;;;;;;;;;;2.96;75.60;101164.03;1088374;46;999;-78
2023/12/19 01:15:58;;;;;;;;;;;;;;;2.97;75.48;101163.09;1088262;46;998;-78
2023/12/19 01:16:59;;;;;;;;;;;;;;;2.95;75.36;101157.03;1088224;54;949;-78
2023/12/19 01:18:00;;;;;;;;;;;;;;;2.97;75.44;101149.91;1088184;46;1854;-78
2023/12/19 01:19:09;;;;;;;;;;;;;;;2.96;75.14;101153.47;1088256;54;1157;-78
2023/12/19 01:20:10;;;;;;;;;;;;;;;2.94;75.53;101147.38;1088326;46;1057;-78
2023/12/19 01:21:13;;;;;;;;;;;;;;;2.93;75.46;101148.31;1088276;47;998;-78
2023/12/19 01:22:14;;;;;;;;;;;;;;;2.81;75.49;101139.16;1088362;54;1049;-77
2023/12/19 01:23:17;;;;;;;;;;;;;;;2.83;75.64;101132.94;1088312;54;957;-77
2023/12/19 01:24:21;;;;;;;;;;;;;;;2.85;75.35;101144.31;1088230;47;1006;-78
2023/12/19 01:25:25;;;;;;;;;;;;;;;2.79;75.34;101137.50;1088393;46;1113;-77
2023/12/19 01:26:25;;;;;;;;;;;;;;;2.63;75.81;101139.97;1088343;54;1204;-78
2023/12/19 01:27:29;;;;;;;;;;;;;;;2.65;75.92;101148.69;1088297;54;1365;-78
2023/12/19 01:28:29;;;;;;;;;;;;;;;2.75;75.82;101154.41;1088329;54;1349;-77
2023/12/19 01:29:33;;;;;;;;;;;;;;;2.79;75.67;101151.56;1088132;47;1082;-78
2023/12/19 01:30:33;;;;;;;;;;;;;;;2.80;75.48;101158.56;1088328;54;1138;-78
2023/12/19 01:31:38;;;;;;;;;;;;;;;2.79;75.72;101159.47;1088383;47;1050;-78
2023/12/19 01:32:39;;;;;;;;;;;;;;;2.84;75.33;101151.34;1088334;47;982;-78
2023/12/19 01:33:42;;;;;;;;;;;;;;;2.86;75.45;101153.94;1088102;47;880;-78
2023/12/19 01:34:46;;;;;;;;;;;;;;;2.81;75.74;101149.72;1088295;46;974;-78
2023/12/19 01:35:50;;;;;;;;;;;;;;;2.91;75.23;101134.34;1088308;54;1119;-78
2023/12/19 01:36:51;;;;;;;;;;;;;;;2.89;75.15;101133.53;1088289;47;1039;-79
2023/12/19 01:37:54;;;;;;;;;;;;;;;2.88;75.30;101139.75;1088173;47;1834;-78
2023/12/19 01:38:55;;;;;;;;;;;;;;;2.92;75.32;101129.88;1088260;54;1014;-79
2023/12/19 01:39:58;;;;;;;;;;;;;;;2.87;75.17;101145.09;1088301;47;904;-78
2023/12/19 01:41:01;;;;;;;;;;;;;;;2.73;75.44;101153.63;1088230;54;967;-77
2023/12/19 01:42:04;;;;;;;;;;;;;;;2.76;75.49;101161.41;1088308;47;1417;-78
2023/12/19 01:43:15;;;;;;;;;;;;;;;2.74;75.58;101184.41;1088293;54;900;-78
2023/12/19 01:44:20;;;;;;;;;;;;;;;2.67;75.72;101186.44;1088330;54;972;-78
2023/12/19 01:45:22;;;;;;;;;;;;;;;2.62;75.75;101185.75;1087511;54;1176;-78
2023/12/19 01:46:26;;;;;;;;;;;;;;;2.61;75.64;101174.34;1088542;46;863;-78
2023/12/19 01:47:27;;;;;;;;;;;;;;;2.66;75.42;101182.09;1088185;46;1181;-78
2023/12/19 01:48:31;;;;;;;;;;;;;;;2.74;75.31;101182.59;1088054;54;1051;-78
2023/12/19 01:49:31;;;;;;;;;;;;;;;2.77;75.29;101179.84;1088145;54;964;-79
2023/12/19 01:50:37;;;;;;;;;;;;;;;2.81;75.26;101170.00;1088269;54;1071;-78
2023/12/19 01:51:38;;;;;;;;;;;;;;;2.83;75.05;101168.16;1088054;47;1078;-77
2023/12/19 01:52:44;;;;;;;;;;;;;;;2.80;75.20;101163.00;1088341;46;1157;-77
2023/12/19 01:53:47;;;;;;;;;;;;;;;2.62;75.44;101162.88;1088170;47;998;-77
2023/12/19 01:54:48;;;;;;;;;;;;;;;2.58;75.55;101149.88;1088385;46;1094;-76
2023/12/19 01:55:55;;;;;;;;;;;;;;;2.53;75.86;101144.78;1088183;54;979;-77
2023/12/19 01:56:56;;;;;;;;;;;;;;;2.50;75.56;101150.19;1088334;46;966;-76
2023/12/19 01:58:00;;;;;;;;;;;;;;;2.50;75.93;101145.75;1088309;46;1858;-77
2023/12/19 01:59:01;;;;;;;;;;;;;;;2.57;75.74;101141.09;1088232;46;887;-78
2023/12/19 02:00:03;;;;;;;;;;;;;;;2.57;75.93;101134.97;1088117;47;949;-77
2023/12/19 02:01:07;;;;;;;;;;;;;;;2.64;75.64;101141.69;1088124;54;881;-76
2023/12/19 02:02:08;;;;;;;;;;;;;;;2.65;75.53;101136.31;1088174;54;993;-77
2023/12/19 02:03:11;;;;;;;;;;;;;;;2.63;75.65;101155.81;1088126;47;928;-77
2023/12/19 02:04:12;;;;;;;;;;;;;;;2.64;75.64;101165.44;1088156;47;916;-77
2023/12/19 02:05:16;;;;;;;;;;;;;;;2.62;75.63;101173.44;1088102;47;1095;-77
2023/12/19 02:06:21;;;;;;;;;;;;;;;2.52;76.04;101169.47;1088132;54;955;-76
2023/12/19 02:07:24;;;;;;;;;;;;;;;2.61;75.79;101165.56;1088090;54;1353;-76
2023/12/19 02:08:25;;;;;;;;;;;;;;;2.67;75.59;101160.03;1088098;54;1458;-76
2023/12/19 02:09:29;;;;;;;;;;;;;;;2.69;75.72;101154.69;1088212;54;993;-77
2023/12/19 02:10:29;;;;;;;;;;;;;;;2.75;75.15;101154.41;1088110;47;971;-76
2023/12/19 02:11:31;;;;;;;;;;;;;;;2.78;75.26;101156.91;1088223;46;964;-76
2023/12/19 02:12:34;;;;;;;;;;;;;;;2.76;75.11;101159.63;1088111;54;976;-77
2023/12/19 02:13:35;;;;;;;;;;;;;;;2.69;75.30;101149.41;1088187;54;1114;-77
2023/12/19 02:14:39;;;;;;;;;;;;;;;2.72;75.19;101146.63;1088175;47;1019;-78
2023/12/19 02:15:40;;;;;;;;;;;;;;;2.63;75.30;101154.03;1088080;54;1019;-79
2023/12/19 02:16:44;;;;;;;;;;;;;;;2.57;75.59;101145.50;1087893;54;1106;-79
2023/12/19 02:17:45;;;;;;;;;;;;;;;2.47;75.51;101151.19;1087935;54;1272;-79
2023/12/19 02:19:02;;;;;;;;;;;;;;;2.44;76.03;101156.59;1088043;54;1850;-78
2023/12/19 02:20:03;;;;;;;;;;;;;;;2.39;76.00;101157.72;1088107;54;973;-79
2023/12/19 02:21:07;;;;;;;;;;;;;;;2.28;76.20;101158.16;1088110;54;1019;-79
2023/12/19 02:22:11;;;;;;;;;;;;;;;2.28;76.46;101164.28;1088182;47;1355;-79
2023/12/19 02:23:17;;;;;;;;;;;;;;;2.23;76.53;101166.28;1088167;47;981;-79
2023/12/19 02:24:19;;;;;;;;;;;;;;;2.23;76.46;101162.75;1088259;54;1042;-80
2023/12/19 02:25:23;;;;;;;;;;;;;;;2.21;76.67;101164.63;1088302;54;933;-78
2023/12/19 02:26:24;;;;;;;;;;;;;;;2.18;76.77;101155.03;1088312;54;903;-78
2023/12/19 02:27:28;;;;;;;;;;;;;;;2.09;76.96;101165.97;1088261;54;1341;-79
2023/12/19 02:28:29;;;;;;;;;;;;;;;2.08;77.10;101154.56;1088112;47;962;-79
2023/12/19 02:29:33;;;;;;;;;;;;;;;2.09;77.12;101155.41;1088295;54;1079;-79
2023/12/19 02:30:35;;;;;;;;;;;;;;;2.02;77.02;101157.47;1088306;54;933;-79
2023/12/19 02:31:38;;;;;;;;;;;;;;;2.00;77.24;101154.88;1088272;54;1008;-80
2023/12/19 02:32:41;;;;;;;;;;;;;;;2.05;76.90;101156.47;1088267;54;1368;-79
2023/12/19 02:33:46;;;;;;;;;;;;;;;2.01;77.21;101158.38;1088241;54;1095;-79
2023/12/19 02:34:49;;;;;;;;;;;;;;;2.07;77.22;101155.50;1088566;46;979;-79
2023/12/19 02:35:53;;;;;;;;;;;;;;;1.99;77.47;101150.53;1088227;54;1093;-79
2023/12/19 02:36:54;;;;;;;;;;;;;;;2.02;77.27;101150.41;1088110;47;1071;-80
2023/12/19 02:37:57;;;;;;;;;;;;;;;2.18;76.97;101147.13;1088093;46;1355;-78
2023/12/19 02:39:01;;;;;;;;;;;;;;;2.12;77.07;101161.47;1088176;54;1852;-79
2023/12/19 02:40:05;;;;;;;;;;;;;;;2.24;76.78;101148.66;1088100;54;1059;-78
2023/12/19 02:41:07;;;;;;;;;;;;;;;2.31;76.60;101150.13;1088095;54;1043;-79
2023/12/19 02:42:11;;;;;;;;;;;;;;;2.32;76.51;101146.53;1088266;46;1178;-81
2023/12/19 02:43:12;;;;;;;;;;;;;;;2.29;76.67;101146.69;1088320;54;1053;-79
2023/12/19 02:44:16;;;;;;;;;;;;;;;2.38;76.31;101137.50;1088179;54;946;-79
2023/12/19 02:45:17;;;;;;;;;;;;;;;2.41;76.03;101142.66;1088262;47;1063;-79
2023/12/19 02:46:21;;;;;;;;;;;;;;;2.45;75.94;101150.41;1087309;54;1323;-80
2023/12/19 02:47:22;;;;;;;;;;;;;;;2.46;75.83;101140.69;1088381;46;1369;-81
2023/12/19 02:48:26;;;;;;;;;;;;;;;2.33;76.20;101133.31;1088414;47;896;-79
2023/12/19 02:49:27;;;;;;;;;;;;;;;2.26;76.15;101129.22;1088353;54;1014;-79
2023/12/19 02:50:28;;;;;;;;;;;;;;;2.32;75.93;101123.66;1088278;54;998;-80
2023/12/19 02:51:33;;;;;;;;;;;;;;;2.25;76.29;101119.59;1088345;47;954;-80
2023/12/19 02:52:35;;;;;;;;;;;;;;;2.29;76.29;101118.50;1088353;54;999;-80
2023/12/19 02:53:38;;;;;;;;;;;;;;;2.30;75.85;101117.59;1088331;47;978;-79
2023/12/19 02:54:42;;;;;;;;;;;;;;;2.36;75.63;101120.91;1088400;46;1033;-78
2023/12/19 02:55:46;;;;;;;;;;;;;;;2.37;75.66;101119.97;1088237;47;1044;-81
2023/12/19 02:56:48;;;;;;;;;;;;;;;2.36;75.78;101124.38;1088250;54;1007;-80
2023/12/19 02:57:52;;;;;;;;;;;;;;;2.41;75.67;101124.19;1088381;54;1391;-80
2023/12/19 02:58:53;;;;;;;;;;;;;;;2.42;75.68;101120.63;1088442;54;1852;-79
2023/12/19 02:59:57;;;;;;;;;;;;;;;2.46;75.53;101122.19;1088344;47;953;-79
2023/12/19 03:00:57;;;;;;;;;;;;;;;2.37;75.73;101117.31;1088486;54;1004;-80
2023/12/19 03:02:03;;;;;;;;;;;;;;;2.39;75.79;101118.13;1088331;47;1047;-81
2023/12/19 03:03:04;;;;;;;;;;;;;;;2.48;75.60;101115.06;1088345;54;912;-81
2023/12/19 03:04:08;;;;;;;;;;;;;;;2.49;75.55;101117.69;1088430;54;937;-79
2023/12/19 03:05:09;;;;;;;;;;;;;;;2.49;75.43;101108.88;1088315;54;960;-80
2023/12/19 03:06:16;;;;;;;;;;;;;;;2.52;75.47;101106.13;1088439;54;1006;-80
2023/12/19 03:07:19;;;;;;;;;;;;;;;2.57;75.47;101114.69;1088245;54;901;-80
2023/12/19 03:08:24;;;;;;;;;;;;;;;2.58;75.34;101116.41;1088324;47;1440;-80
2023/12/19 03:09:25;;;;;;;;;;;;;;;2.62;75.30;101109.19;1088457;54;992;-80
2023/12/19 03:10:31;;;;;;;;;;;;;;;2.63;75.03;101109.16;1088299;47;921;-80
2023/12/19 03:11:31;;;;;;;;;;;;;;;2.63;75.05;101109.16;1088332;47;1036;-80
2023/12/19 03:12:35;;;;;;;;;;;;;;;2.51;75.19;101104.41;1088373;54;1006;-79
2023/12/19 03:13:36;;;;;;;;;;;;;;;2.39;75.41;101115.47;1088380;54;1127;-80
2023/12/19 03:14:39;;;;;;;;;;;;;;;2.32;75.71;101110.47;1088296;54;1014;-80
2023/12/19 03:15:40;;;;;;;;;;;;;;;2.28;75.52;101108.03;1087992;54;980;-81
2023/12/19 03:16:44;;;;;;;;;;;;;;;2.32;75.65;101110.47;1088262;47;978;-80
2023/12/19 03:17:45;;;;;;;;;;;;;;;2.40;75.37;101106.63;1088185;54;1353;-80
2023/12/19 03:18:50;;;;;;;;;;;;;;;2.42;75.41;101116.19;1088312;46;1872;-81
2023/12/19 03:19:51;;;;;;;;;;;;;;;2.33;75.53;101114.84;1088215;46;941;-80
2023/12/19 03:20:55;;;;;;;;;;;;;;;2.29;75.67;101115.88;1088169;54;845;-79
2023/12/19 03:21:56;;;;;;;;;;;;;;;2.38;75.31;101112.00;1088378;46;885;-78
2023/12/19 03:23:00;;;;;;;;;;;;;;;2.43;75.11;101111.78;1088321;54;947;-79
2023/12/19 03:24:01;;;;;;;;;;;;;;;2.44;75.11;101100.31;1088461;54;943;-82
2023/12/19 03:25:02;;;;;;;;;;;;;;;2.47;75.31;101103.69;1088343;54;982;-81
2023/12/19 03:26:09;;;;;;;;;;;;;;;2.48;75.03;101093.97;1088312;47;892;-79
2023/12/19 03:27:11;;;;;;;;;;;;;;;2.29;75.39;101092.13;1088530;54;918;-81
2023/12/19 03:28:12;;;;;;;;;;;;;;;2.41;75.25;101081.97;1088415;54;1472;-81
2023/12/19 03:29:16;;;;;;;;;;;;;;;2.42;75.25;101078.41;1088165;54;969;-79
2023/12/19 03:30:17;;;;;;;;;;;;;;;2.45;74.87;101073.00;1088327;54;991;-80
2023/12/19 03:31:29;;;;;;;;;;;;;;;2.42;74.93;101067.84;1088349;54;906;-81
2023/12/19 03:32:30;;;;;;;;;;;;;;;2.27;75.05;101074.66;1088340;54;987;-79
2023/12/19 03:33:33;;;;;;;;;;;;;;;2.07;75.50;101073.72;1088154;46;890;-80
2023/12/19 03:34:36;;;;;;;;;;;;;;;1.95;75.59;101076.84;1088380;54;1015;-79
2023/12/19 03:35:37;;;;;;;;;;;;;;;1.94;76.01;101073.38;1088311;54;1001;-80
2023/12/19 03:36:41;;;;;;;;;;;;;;;1.95;75.70;101067.19;1088428;46;963;-80
2023/12/19 03:37:44;;;;;;;;;;;;;;;2.03;75.91;101072.16;1088271;54;1364;-80
2023/12/19 03:38:48;;;;;;;;;;;;;;;1.88;76.25;101073.63;1088291;54;1852;-81
2023/12/19 03:39:55;;;;;;;;;;;;;;;1.84;76.38;101067.59;1088310;47;995;-80
2023/12/19 03:41:00;;;;;;;;;;;;;;;1.80;76.26;101080.97;1088409;54;887;-81
2023/12/19 03:42:04;;;;;;;;;;;;;;;1.71;76.68;101077.81;1088557;46;1133;-80
2023/12/19 03:43:08;;;;;;;;;;;;;;;1.74;76.55;101071.56;1088214;54;883;-79
2023/12/19 03:44:09;;;;;;;;;;;;;;;1.68;76.78;101074.44;1088335;54;952;-80
2023/12/19 03:45:13;;;;;;;;;;;;;;;1.61;76.66;101060.66;1088230;47;956;-79
2023/12/19 03:46:15;;;;;;;;;;;;;;;1.67;76.61;101063.06;1088313;54;957;-80
2023/12/19 03:47:20;;;;;;;;;;;;;;;1.77;76.69;101065.31;1087642;54;1088;-80
2023/12/19 03:48:21;;;;;;;;;;;;;;;1.82;76.55;101073.88;1088421;54;1010;-80
2023/12/19 03:49:23;;;;;;;;;;;;;;;1.88;76.24;101071.00;1088216;47;1055;-80
2023/12/19 03:50:27;;;;;;;;;;;;;;;1.85;76.44;101068.47;1088477;54;965;-82
2023/12/19 03:51:28;;;;;;;;;;;;;;;1.87;76.22;101064.00;1088504;54;953;-80
2023/12/19 03:54:50;;;;;;;;;;;;;;;1.92;76.07;101064.66;1088030;54;1217;-82
2023/12/19 03:56:02;;;;;;;;;;;;;;;1.84;76.17;101058.84;1088767;54;929;-81
2023/12/19 03:57:22;;;;;;;;;;;;;;;1.74;76.16;101074.22;1088685;47;983;-82
2023/12/19 03:58:25;;;;;;;;;;;;;;;1.68;76.68;101071.81;1088666;54;1432;-81
2023/12/19 03:59:29;;;;;;;;;;;;;;;1.60;76.61;101069.50;1089120;46;1845;-81
2023/12/19 04:00:30;;;;;;;;;;;;;;;1.61;76.83;101081.72;1088580;54;979;-80
2023/12/19 04:01:34;;;;;;;;;;;;;;;1.62;76.85;101078.19;1088690;54;992;-82
2023/12/19 04:02:34;;;;;;;;;;;;;;;1.70;76.67;101081.38;1088541;47;944;-82
2023/12/19 04:03:39;;;;;;;;;;;;;;;1.74;76.63;101082.13;1088525;47;956;-81
2023/12/19 04:04:40;;;;;;;;;;;;;;;1.68;76.71;101087.63;1088335;54;986;-79
2023/12/19 04:05:44;;;;;;;;;;;;;;;1.74;76.91;101086.53;1088272;54;1062;-81
2023/12/19 04:06:44;;;;;;;;;;;;;;;1.81;76.32;101090.63;1088274;47;961;-79
2023/12/19 04:07:48;;;;;;;;;;;;;;;1.82;76.24;101095.84;1088348;47;1168;-80
2023/12/19 04:08:49;;;;;;;;;;;;;;;1.73;76.51;101090.06;1088247;47;932;-81
2023/12/19 04:09:52;;;;;;;;;;;;;;;1.77;76.32;101094.31;1088328;54;1032;-82
2023/12/19 04:10:53;;;;;;;;;;;;;;;1.69;76.42;101091.97;1088272;47;970;-81
2023/12/19 04:12:01;;;;;;;;;;;;;;;1.57;76.89;101090.69;1088338;54;982;-81
2023/12/19 04:13:02;;;;;;;;;;;;;;;1.51;77.03;101081.25;1088163;54;950;-80
2023/12/19 04:14:08;;;;;;;;;;;;;;;1.43;77.19;101066.66;1088235;54;977;-80
2023/12/19 04:15:10;;;;;;;;;;;;;;;1.50;76.94;101062.88;1088193;54;947;-80
2023/12/19 04:16:13;;;;;;;;;;;;;;;1.60;76.53;101058.97;1088190;54;984;-80
2023/12/19 04:17:14;;;;;;;;;;;;;;;1.64;76.39;101064.97;1088268;54;1006;-80
2023/12/19 04:18:15;;;;;;;;;;;;;;;1.63;76.70;101064.09;1088196;47;1359;-78
2023/12/19 04:19:19;;;;;;;;;;;;;;;1.70;76.38;101060.28;1088228;54;1851;-80
2023/12/19 04:20:20;;;;;;;;;;;;;;;1.76;76.02;101059.16;1088239;47;977;-79
2023/12/19 04:21:20;;;;;;;;;;;;;;;1.79;76.08;101060.84;1088251;54;1015;-79
2023/12/19 04:22:23;;;;;;;;;;;;;;;1.86;75.91;101054.38;1088165;54;978;-80
2023/12/19 04:23:24;;;;;;;;;;;;;;;1.87;75.92;101058.75;1088082;54;1017;-79
2023/12/19 04:24:28;;;;;;;;;;;;;;;1.89;75.87;101048.97;1088091;47;1014;-80
2023/12/19 04:25:29;;;;;;;;;;;;;;;1.80;75.68;101059.88;1088114;54;1136;-79
2023/12/19 04:26:32;;;;;;;;;;;;;;;1.85;75.72;101050.88;1088359;47;895;-80
2023/12/19 04:27:33;;;;;;;;;;;;;;;1.92;75.45;101048.00;1088163;54;1386;-78
2023/12/19 04:28:36;;;;;;;;;;;;;;;1.93;75.26;101042.66;1088537;54;978;-79
2023/12/19 04:29:46;;;;;;;;;;;;;;;1.93;75.38;101033.88;1088599;54;1013;-81
2023/12/19 04:30:49;;;;;;;;;;;;;;;1.79;75.54;101037.09;1088698;54;1051;-78
2023/12/19 04:31:50;;;;;;;;;;;;;;;1.79;75.50;101037.94;1088546;54;1016;-79
2023/12/19 04:32:53;;;;;;;;;;;;;;;1.84;75.36;101032.47;1088640;54;1005;-79
2023/12/19 04:33:55;;;;;;;;;;;;;;;1.80;75.43;101028.25;1088658;54;1033;-80
2023/12/19 04:34:59;;;;;;;;;;;;;;;1.80;75.55;101026.47;1088619;47;968;-79
2023/12/19 04:36:01;;;;;;;;;;;;;;;1.70;75.66;101028.63;1088690;54;1019;-79
2023/12/19 04:37:04;;;;;;;;;;;;;;;1.67;75.93;101028.78;1088517;47;1138;-80
2023/12/19 04:38:05;;;;;;;;;;;;;;;1.61;76.11;101031.66;1088446;47;1356;-80
2023/12/19 04:39:08;;;;;;;;;;;;;;;1.58;76.24;101029.16;1088694;46;1856;-80
2023/12/19 04:40:09;;;;;;;;;;;;;;;1.56;76.13;101028.34;1088507;54;1020;-80
2023/12/19 04:41:12;;;;;;;;;;;;;;;1.55;76.22;101022.25;1088426;46;879;-79
2023/12/19 04:42:17;;;;;;;;;;;;;;;1.59;75.96;101022.09;1088365;54;1030;-80
2023/12/19 04:43:20;;;;;;;;;;;;;;;1.62;76.06;101014.06;1088446;54;946;-79
2023/12/19 04:44:22;;;;;;;;;;;;;;;1.69;75.94;101011.13;1088534;47;999;-80
2023/12/19 04:45:26;;;;;;;;;;;;;;;1.73;75.92;101005.69;1088322;47;917;-80
2023/12/19 04:46:29;;;;;;;;;;;;;;;1.79;75.70;101005.47;1088309;47;912;-80
2023/12/19 04:47:30;;;;;;;;;;;;;;;1.84;75.35;101003.47;1088458;54;1387;-79
2023/12/19 04:48:34;;;;;;;;;;;;;;;1.89;75.41;101012.03;1088447;54;973;-78
2023/12/19 04:49:36;;;;;;;;;;;;;;;1.83;75.50;101007.91;1088274;47;974;-80
2023/12/19 04:50:39;;;;;;;;;;;;;;;1.91;75.29;101007.56;1088504;54;1014;-78
2023/12/19 04:51:40;;;;;;;;;;;;;;;1.92;75.08;101011.91;1088123;47;985;-77
2023/12/19 04:52:43;;;;;;;;;;;;;;;1.98;75.09;101022.22;1088066;47;994;-76
2023/12/19 04:53:43;;;;;;;;;;;;;;;2.00;75.17;101020.34;1088164;54;993;-76
2023/12/19 04:54:45;;;;;;;;;;;;;;;2.05;75.01;101014.03;1088233;54;947;-77
2023/12/19 04:55:49;;;;;;;;;;;;;;;1.93;75.25;101018.06;1087347;54;1136;-77
2023/12/19 04:56:50;;;;;;;;;;;;;;;1.83;75.24;101009.66;1088109;54;982;-77
2023/12/19 04:57:54;;;;;;;;;;;;;;;1.92;74.85;101013.72;1088143;47;1295;-76
2023/12/19 04:58:54;;;;;;;;;;;;;;;1.88;75.07;101015.63;1088169;54;965;-77
2023/12/19 04:59:58;;;;;;;;;;;;;;;1.85;75.37;101021.03;1088016;47;1846;-76
2023/12/19 05:01:01;;;;;;;;;;;;;;;1.91;75.14;101020.75;1088068;54;864;-75
2023/12/19 05:02:03;;;;;;;;;;;;;;;1.92;75.32;101017.19;1088255;46;1011;-78
2023/12/19 05:03:06;;;;;;;;;;;;;;;1.79;75.18;101016.84;1088485;54;1007;-78
2023/12/19 05:04:09;;;;;;;;;;;;;;;1.78;75.48;101025.69;1088438;54;987;-78
2023/12/19 05:05:13;;;;;;;;;;;;;;;1.76;75.59;101021.41;1088693;46;867;-78
2023/12/19 05:06:17;;;;;;;;;;;;;;;1.69;75.66;101013.75;1088228;47;920;-77
2023/12/19 05:07:20;;;;;;;;;;;;;;;1.66;75.84;101015.63;1088335;54;969;-77
2023/12/19 05:08:20;;;;;;;;;;;;;;;1.71;75.40;101016.31;1088320;46;1498;-78
2023/12/19 05:09:21;;;;;;;;;;;;;;;1.65;75.24;101014.78;1088381;54;1007;-79
2023/12/19 05:10:24;;;;;;;;;;;;;;;1.73;75.25;101022.41;1088276;54;1050;-79
2023/12/19 05:11:25;;;;;;;;;;;;;;;1.76;74.92;101018.78;1088143;47;925;-77
2023/12/19 05:12:28;;;;;;;;;;;;;;;1.74;75.02;101028.50;1088398;47;909;-79
2023/12/19 05:13:31;;;;;;;;;;;;;;;1.63;75.36;101029.81;1088439;54;975;-79
2023/12/19 05:14:35;;;;;;;;;;;;;;;1.71;75.22;101029.50;1088338;54;1055;-80
2023/12/19 05:15:36;;;;;;;;;;;;;;;1.66;74.93;101015.63;1088413;54;1056;-80
2023/12/19 05:16:39;;;;;;;;;;;;;;;1.62;74.99;101014.91;1088324;54;1163;-79
2023/12/19 05:17:42;;;;;;;;;;;;;;;1.53;75.07;101005.63;1088239;47;1336;-81
2023/12/19 05:18:43;;;;;;;;;;;;;;;1.44;75.39;101013.03;1088326;47;892;-80
2023/12/19 05:19:47;;;;;;;;;;;;;;;1.34;75.28;101013.41;1088220;54;1856;-79
2023/12/19 05:20:48;;;;;;;;;;;;;;;1.24;75.72;101015.56;1088269;54;1114;-79
2023/12/19 05:21:51;;;;;;;;;;;;;;;1.23;75.75;101010.34;1088242;54;979;-81
2023/12/19 05:22:51;;;;;;;;;;;;;;;1.20;76.00;101018.38;1088451;47;916;-80
2023/12/19 05:23:55;;;;;;;;;;;;;;;1.12;76.31;101005.50;1088566;54;960;-81
2023/12/19 05:24:57;;;;;;;;;;;;;;;1.18;76.13;101009.69;1088656;47;868;-80
2023/12/19 05:26:01;;;;;;;;;;;;;;;1.19;76.23;101014.03;1088713;54;1002;-80
2023/12/19 05:27:02;;;;;;;;;;;;;;;1.13;76.33;101012.50;1089043;46;980;-82
2023/12/19 05:28:03;;;;;;;;;;;;;;;1.17;76.39;101015.88;1088653;54;1332;-80
2023/12/19 05:29:07;;;;;;;;;;;;;;;1.15;76.35;101017.69;1088752;54;1015;-81
2023/12/19 05:30:08;;;;;;;;;;;;;;;1.09;76.75;101016.16;1088650;54;973;-82
2023/12/19 05:31:12;;;;;;;;;;;;;;;1.11;76.56;101018.75;1088609;47;965;-80
2023/12/19 05:32:16;;;;;;;;;;;;;;;1.08;76.76;101015.31;1088535;54;965;-80
2023/12/19 05:33:19;;;;;;;;;;;;;;;1.10;76.64;101028.41;1088635;47;933;-80
2023/12/19 05:34:20;;;;;;;;;;;;;;;1.00;77.29;101027.03;1088764;54;889;-78
2023/12/19 05:35:24;;;;;;;;;;;;;;;1.02;77.19;101030.47;1088743;54;1003;-79
2023/12/19 05:36:26;;;;;;;;;;;;;;;1.00;76.95;101032.31;1088586;47;919;-82